»·PEaware :: TBIRD8 KSAN-KLSV

TBIRD8 :: KSAN-KLSV

FLIGHT INFORMATION

Flight Status: Arrived
Operator: Unknown
More flights by this operator :: More flights under this callsign
Pilot: Kevin M. (7)
Aircraft: GENERAL DYNAMICS F-16 FIGHTING FALCON
(F16)
More flights by this aircraft type
Origin: KSAN San Diego Intl-Lindbergh
United States
Destination: KLSV Nellis AFB
United States
More flights between these airports :: More routes between these airports
Route: +PADRZ2 CHKNN SEBBY LAS
File this flight plan on PilotEdge
Remarks:
Altitude:
(Current/Filed)
31,000ft
Speed:
(Current/Filed)
555kts
Departed: 19-Nov-19 06:10 PM
Arrived: 19-Nov-19 06:41 PM
Distance/Time
Traveled:
236nm/0:31
Distance/Time
To Go:
Arrived

Flight Plot

Page will automatically refresh every two minutes.

Flight plan parsing failed; only flown route is shown


Map Options




Map Legend


Flown Route
Filed Route
Departure Airport
Arrival Airport
Navaid (VOR, NDB)
Fix

Horizontal Profiles

Position Reports

Time Latitude Longitude Heading Altitude Ground
Speed
19-Nov-19 17:53 32.732395 -117.176705 193 25ft 0kts
19-Nov-19 17:53 32.732395 -117.176705 193 25ft 0kts
19-Nov-19 17:55 32.732395 -117.176705 193 25ft 0kts
19-Nov-19 17:56 32.732395 -117.176705 193 25ft 0kts
19-Nov-19 17:56 32.732395 -117.176705 193 25ft 0kts
19-Nov-19 17:58 32.732395 -117.176705 193 25ft 0kts
19-Nov-19 17:59 32.732395 -117.176705 193 25ft 0kts
19-Nov-19 17:59 32.732395 -117.176705 193 25ft 0kts
19-Nov-19 18:00 32.732395 -117.176705 193 25ft 0kts
19-Nov-19 18:01 32.732395 -117.176705 193 25ft 0kts
19-Nov-19 18:02 32.732395 -117.176705 193 25ft 0kts
19-Nov-19 18:03 32.732395 -117.176705 193 25ft 0kts
19-Nov-19 18:04 32.732395 -117.176705 193 25ft 0kts
19-Nov-19 18:05 32.732275 -117.176941 254 25ft 5kts
19-Nov-19 18:06 32.731569 -117.176842 122 25ft 10kts
19-Nov-19 18:07 32.731020 -117.175625 131 26ft 0kts
19-Nov-19 18:08 32.731020 -117.175625 131 26ft 0kts
19-Nov-19 18:09 32.733228 -117.188380 284 603ft 214kts
19-Nov-19 18:10 32.765762 -117.256727 303 13726ft 347kts
19-Nov-19 18:11 32.857923 -117.388913 329 17667ft 599kts
19-Nov-19 18:12 33.018538 -117.426361 336 22597ft 591kts
19-Nov-19 18:13 33.175601 -117.479297 343 27557ft 598kts
19-Nov-19 18:14 33.337182 -117.531368 343 30742ft 606kts
19-Nov-19 18:15 33.500668 -117.584299 343 30740ft 607kts
19-Nov-19 18:16 33.665168 -117.637774 343 30719ft 608kts
19-Nov-19 18:17 33.829302 -117.691341 342 30720ft 608kts
19-Nov-19 18:18 33.993340 -117.743894 349 30718ft 609kts
19-Nov-19 18:19 34.157251 -117.693108 35 30765ft 617kts
19-Nov-19 18:20 34.274544 -117.541836 47 30739ft 617kts
19-Nov-19 18:21 34.392734 -117.390866 47 30719ft 616kts
19-Nov-19 18:22 34.508886 -117.241889 48 33521ft 598kts
19-Nov-19 18:23 34.621145 -117.097303 48 38464ft 582kts
19-Nov-19 18:24 34.734947 -116.950018 48 38684ft 599kts
19-Nov-19 18:25 34.812982 -116.835911 50 24032ft 439kts
19-Nov-19 18:26 34.901674 -116.722755 47 23668ft 485kts
19-Nov-19 18:27 35.016214 -116.573652 47 23667ft 639kts
19-Nov-19 18:28 35.139312 -116.412972 47 22746ft 649kts
19-Nov-19 18:29 35.263474 -116.250098 47 21717ft 651kts
19-Nov-19 18:30 35.386972 -116.087324 47 20689ft 653kts
19-Nov-19 18:31 35.510529 -115.923681 47 19675ft 655kts
19-Nov-19 18:32 35.634622 -115.758533 47 18709ft 656kts
19-Nov-19 18:33 35.759709 -115.591277 47 18691ft 654kts
19-Nov-19 18:34 35.883990 -115.424383 47 18686ft 655kts
19-Nov-19 18:35 36.007688 -115.257283 47 15508ft 647kts
19-Nov-19 18:36 36.128078 -115.110303 41 11407ft 438kts
19-Nov-19 18:37 36.194860 -115.036786 42 10098ft 256kts
19-Nov-19 18:38 36.251701 -114.977703 41 6247ft 235kts
19-Nov-19 18:39 36.258365 -115.012819 215 2181ft 169kts
19-Nov-19 18:40 36.231758 -115.041292 220 1843ft 30kts
19-Nov-19 18:41 36.228132 -115.047679 57 1841ft 15kts
19-Nov-19 18:42 36.231606 -115.043869 43 1844ft 18kts
19-Nov-19 18:43 36.235752 -115.039414 41 1851ft 20kts
19-Nov-19 18:44 36.239917 -115.034936 348 1860ft 8kts
19-Nov-19 18:45 36.240547 -115.035124 40 1862ft 0kts
19-Nov-19 18:46 36.240547 -115.035125 40 1862ft 0kts
19-Nov-19 18:47 36.240547 -115.035125 40 1862ft 0kts
19-Nov-19 18:48 36.240547 -115.035125 40 1862ft 0kts
19-Nov-19 18:49 36.240547 -115.035125 40 1862ft 0kts
19-Nov-19 18:50 36.240547 -115.035125 40 1862ft 0kts
19-Nov-19 18:51 36.240547 -115.035125 40 1862ft 0kts
19-Nov-19 18:52 36.240547 -115.035125 40 1862ft 0kts

Navigation Log

Ident Type
Flight plan parsing failed, navigation log unavailable